Time;durP1;ratioP1;P1;durP2;ratioP2;P2;SDS_P1;SDS_P2;PMS_P1;PMS_P2;Temp;Humidity;BMP_temperature;BMP_pressure;BME280_temperature;BME280_humidity;BME280_pressure;Samples;Min_cycle;Max_cycle;Signal;HPM_P1;HPM_P2
2022/07/20 00:00:54;;;;;;;5.37;4.20;;;;;;;;;;5033529;28;20400;-49
2022/07/20 00:03:20;;;;;;;4.80;4.40;;;;;;;;;;5034215;28;20764;-50
2022/07/20 00:05:46;;;;;;;6.47;4.37;;;;;;;;;;5034125;28;20413;-48
2022/07/20 00:08:12;;;;;;;14.03;4.87;;;;;;;;;;5033956;28;20797;-49
2022/07/20 00:13:22;;;;;;;4.30;3.90;;;;;;;;;;5034082;28;20437;-49
2022/07/20 00:15:49;;;;;;;5.03;3.97;;;;;;;;;;5033938;28;20791;-50
2022/07/20 00:18:15;;;;;;;4.50;4.10;;;;;;;;;;5033567;28;20424;-49
2022/07/20 00:20:41;;;;;;;4.20;3.80;;;;;;;;;;5033884;28;20471;-50
2022/07/20 00:23:07;;;;;;;5.27;4.13;;;;;;;;;;5033876;28;20397;-50
2022/07/20 00:25:33;;;;;;;7.10;4.50;;;;;;;;;;5034298;28;20405;-49
2022/07/20 00:27:59;;;;;;;10.40;4.27;;;;;;;;;;5033719;28;20432;-49
2022/07/20 00:30:25;;;;;;;4.17;3.83;;;;;;;;;;5033397;28;20907;-50
2022/07/20 00:32:51;;;;;;;7.83;3.43;;;;;;;;;;5033678;28;20402;-48
2022/07/20 00:35:17;;;;;;;4.23;3.93;;;;;;;;;;5033730;28;20893;-49
2022/07/20 00:37:44;;;;;;;7.70;4.27;;;;;;;;;;5033426;28;20444;-49
2022/07/20 00:40:11;;;;;;;9.77;4.37;;;;;;;;;;5033187;28;20410;-49
2022/07/20 00:42:38;;;;;;;4.60;4.17;;;;;;;;;;5033651;28;20413;-50
2022/07/20 00:45:05;;;;;;;4.20;3.80;;;;;;;;;;5033513;28;20402;-49
2022/07/20 00:47:31;;;;;;;6.50;4.50;;;;;;;;;;5033494;28;20406;-48
2022/07/20 00:49:57;;;;;;;4.97;4.53;;;;;;;;;;5033027;28;20786;-49
2022/07/20 00:52:23;;;;;;;6.47;4.80;;;;;;;;;;5033391;28;20455;-50
2022/07/20 00:54:50;;;;;;;6.90;5.70;;;;;;;;;;5033219;28;20409;-49
2022/07/20 00:57:16;;;;;;;5.47;4.90;;;;;;;;;;5033144;28;20403;-49
2022/07/20 00:59:43;;;;;;;6.63;4.50;;;;;;;;;;5033309;28;20408;-49
2022/07/20 01:02:09;;;;;;;5.13;4.63;;;;;;;;;;5032641;28;20483;-50
2022/07/20 01:04:35;;;;;;;5.00;4.50;;;;;;;;;;5032633;28;20833;-48
2022/07/20 01:07:01;;;;;;;6.00;4.70;;;;;;;;;;5032487;28;20418;-48
2022/07/20 01:09:27;;;;;;;5.90;5.40;;;;;;;;;;5032276;28;20437;-49
2022/07/20 01:11:53;;;;;;;5.07;4.67;;;;;;;;;;5032845;28;20431;-49
2022/07/20 01:14:19;;;;;;;5.90;5.13;;;;;;;;;;5032891;28;20400;-49
2022/07/20 01:16:45;;;;;;;5.30;4.80;;;;;;;;;;5033103;28;20773;-49
2022/07/20 01:19:11;;;;;;;10.93;4.77;;;;;;;;;;5032397;28;20432;-48
2022/07/20 01:21:41;;;;;;;9.43;5.77;;;;;;;;;;5032789;28;20407;-50
2022/07/20 01:24:09;;;;;;;8.30;5.30;;;;;;;;;;5032715;28;20409;-48
2022/07/20 01:26:36;;;;;;;5.87;4.97;;;;;;;;;;5032752;28;20487;-49
2022/07/20 01:29:02;;;;;;;5.70;5.17;;;;;;;;;;5032456;28;20447;-50
2022/07/20 01:31:28;;;;;;;5.20;4.73;;;;;;;;;;5032599;28;20964;-50
2022/07/20 01:33:54;;;;;;;8.07;5.37;;;;;;;;;;5032508;28;20497;-50
2022/07/20 01:36:20;;;;;;;6.20;5.70;;;;;;;;;;5031164;28;20417;-50
2022/07/20 01:38:46;;;;;;;8.20;6.37;;;;;;;;;;5032045;28;21003;-49
2022/07/20 01:41:12;;;;;;;12.90;10.90;;;;;;;;;;5032462;28;20416;-49
2022/07/20 01:43:38;;;;;;;8.13;7.27;;;;;;;;;;5032369;28;20406;-50
2022/07/20 01:46:04;;;;;;;4.93;4.53;;;;;;;;;;5032357;28;20896;-48
2022/07/20 01:48:30;;;;;;;13.30;5.30;;;;;;;;;;5031943;28;20427;-48
2022/07/20 01:50:56;;;;;;;9.07;6.17;;;;;;;;;;5032153;28;20454;-49
2022/07/20 01:53:22;;;;;;;7.40;6.60;;;;;;;;;;5032181;28;20492;-49
2022/07/20 01:55:48;;;;;;;5.70;5.03;;;;;;;;;;5032276;28;20433;-49
2022/07/20 01:58:14;;;;;;;5.63;5.10;;;;;;;;;;5031783;28;20800;-49
2022/07/20 02:00:40;;;;;;;6.13;4.50;;;;;;;;;;5032127;28;20410;-50
2022/07/20 02:03:06;;;;;;;8.10;7.30;;;;;;;;;;5032090;28;20407;-48
2022/07/20 02:05:31;;;;;;;5.03;4.47;;;;;;;;;;5032005;28;20497;-50
2022/07/20 02:07:57;;;;;;;5.40;5.00;;;;;;;;;;5031961;28;20426;-50
2022/07/20 02:10:23;;;;;;;5.93;5.33;;;;;;;;;;5031719;28;20461;-49
2022/07/20 02:12:49;;;;;;;8.90;6.20;;;;;;;;;;5032047;28;20789;-50
2022/07/20 02:16:14;;;;;;;6.13;5.63;;;;;;;;;;5031977;28;20516;-47
2022/07/20 02:18:08;;;;;;;6.70;6.10;;;;;;;;;;5031686;28;20802;-49
2022/07/20 02:20:35;;;;;;;5.63;5.10;;;;;;;;;;5031764;28;20772;-50
2022/07/20 02:23:02;;;;;;;5.43;5.03;;;;;;;;;;5031453;28;20407;-50
2022/07/20 02:25:28;;;;;;;6.80;5.70;;;;;;;;;;5031892;28;20897;-49
2022/07/20 02:27:54;;;;;;;5.10;4.70;;;;;;;;;;5031697;28;20429;-49
2022/07/20 02:30:20;;;;;;;5.87;4.97;;;;;;;;;;5031479;28;20949;-48
2022/07/20 02:32:46;;;;;;;5.60;4.20;;;;;;;;;;5031740;28;20400;-48
2022/07/20 02:35:12;;;;;;;7.87;5.87;;;;;;;;;;5031776;28;20417;-49
2022/07/20 02:37:38;;;;;;;5.67;5.17;;;;;;;;;;5031655;28;20442;-48
2022/07/20 02:40:04;;;;;;;6.80;4.20;;;;;;;;;;5031679;28;20413;-49
2022/07/20 02:42:31;;;;;;;5.40;4.60;;;;;;;;;;5031754;28;20461;-49
2022/07/20 02:44:57;;;;;;;4.90;4.50;;;;;;;;;;5032134;28;20415;-50
2022/07/20 02:47:23;;;;;;;5.37;4.87;;;;;;;;;;5031587;28;20410;-49
2022/07/20 02:49:49;;;;;;;4.50;4.10;;;;;;;;;;5031336;28;20500;-49
2022/07/20 02:52:15;;;;;;;4.00;3.80;;;;;;;;;;5031662;28;20767;-49
2022/07/20 02:54:41;;;;;;;4.73;3.60;;;;;;;;;;5031639;28;20452;-49
2022/07/20 02:57:07;;;;;;;6.53;4.90;;;;;;;;;;5031560;28;20399;-50
2022/07/20 02:59:32;;;;;;;9.53;3.77;;;;;;;;;;5031018;28;20517;-48
2022/07/20 03:01:58;;;;;;;5.60;4.53;;;;;;;;;;5031465;28;20438;-50
2022/07/20 03:04:24;;;;;;;8.60;3.60;;;;;;;;;;5031486;28;20917;-48
2022/07/20 03:06:50;;;;;;;5.57;4.20;;;;;;;;;;5031720;28;20414;-49
2022/07/20 03:09:16;;;;;;;4.30;3.90;;;;;;;;;;5031096;28;20496;-49
2022/07/20 03:11:43;;;;;;;4.13;3.77;;;;;;;;;;5031405;28;20502;-50
2022/07/20 03:14:09;;;;;;;8.87;3.93;;;;;;;;;;5031292;28;20865;-48
2022/07/20 03:16:35;;;;;;;3.77;3.47;;;;;;;;;;5031447;28;20495;-50
2022/07/20 03:19:00;;;;;;;7.13;4.00;;;;;;;;;;5031252;28;20423;-49
2022/07/20 03:21:26;;;;;;;4.73;4.40;;;;;;;;;;5031350;28;20965;-49
2022/07/20 03:23:53;;;;;;;4.67;3.77;;;;;;;;;;5031319;28;20786;-49
2022/07/20 03:26:19;;;;;;;3.40;3.20;;;;;;;;;;5031326;28;20409;-48
2022/07/20 03:28:45;;;;;;;4.07;3.67;;;;;;;;;;5030817;28;20779;-49
2022/07/20 03:31:11;;;;;;;7.33;3.60;;;;;;;;;;5031209;28;20482;-50
2022/07/20 03:33:37;;;;;;;3.40;3.10;;;;;;;;;;5031227;28;20404;-48
2022/07/20 03:36:04;;;;;;;6.73;4.00;;;;;;;;;;5033379;28;20534;-49
2022/07/20 03:38:30;;;;;;;3.93;3.63;;;;;;;;;;5034306;28;20450;-49
2022/07/20 03:40:56;;;;;;;4.30;3.90;;;;;;;;;;5034700;28;20503;-48
2022/07/20 03:43:25;;;;;;;4.60;3.87;;;;;;;;;;5034553;28;20842;-49
2022/07/20 03:45:51;;;;;;;4.40;3.50;;;;;;;;;;5034789;28;20425;-47
2022/07/20 03:48:17;;;;;;;3.57;3.30;;;;;;;;;;5034186;28;20470;-51
2022/07/20 03:50:43;;;;;;;6.70;3.27;;;;;;;;;;5034451;28;20461;-49
2022/07/20 03:53:09;;;;;;;6.40;4.33;;;;;;;;;;5034544;28;20404;-49
2022/07/20 03:55:35;;;;;;;4.07;3.77;;;;;;;;;;5034451;28;20489;-50
2022/07/20 03:58:01;;;;;;;5.10;3.73;;;;;;;;;;5034188;28;20479;-50
2022/07/20 04:00:27;;;;;;;3.40;3.20;;;;;;;;;;5034151;28;20762;-50
2022/07/20 04:02:53;;;;;;;4.43;3.90;;;;;;;;;;5034397;28;20401;-49
2022/07/20 04:05:19;;;;;;;5.10;3.63;;;;;;;;;;5034258;28;20403;-49
2022/07/20 04:07:45;;;;;;;4.03;3.67;;;;;;;;;;5034661;28;20427;-50
2022/07/20 04:10:11;;;;;;;5.83;3.83;;;;;;;;;;5033843;28;20456;-49
2022/07/20 04:12:37;;;;;;;4.90;3.83;;;;;;;;;;5034395;28;20455;-49
2022/07/20 04:15:03;;;;;;;3.80;3.40;;;;;;;;;;5034066;28;20402;-50
2022/07/20 04:17:29;;;;;;;4.60;3.90;;;;;;;;;;5033889;28;20406;-49
2022/07/20 04:19:55;;;;;;;3.60;3.30;;;;;;;;;;5033725;28;20402;-50
2022/07/20 04:22:21;;;;;;;3.73;3.30;;;;;;;;;;5034286;28;20420;-49
2022/07/20 04:24:47;;;;;;;4.67;3.37;;;;;;;;;;5033883;28;20419;-48
2022/07/20 04:27:13;;;;;;;5.43;3.27;;;;;;;;;;5033747;28;20409;-49
2022/07/20 04:29:39;;;;;;;7.40;3.40;;;;;;;;;;5033465;28;20461;-50
2022/07/20 04:32:06;;;;;;;4.40;3.20;;;;;;;;;;5033819;28;20754;-48
2022/07/20 04:34:32;;;;;;;3.73;3.30;;;;;;;;;;5033833;28;20458;-48
2022/07/20 04:36:58;;;;;;;3.93;3.60;;;;;;;;;;5033728;28;20452;-49
2022/07/20 04:39:24;;;;;;;3.57;3.27;;;;;;;;;;5033163;28;20445;-49
2022/07/20 04:41:50;;;;;;;3.77;3.47;;;;;;;;;;5034131;28;20889;-48
2022/07/20 04:44:16;;;;;;;4.30;3.50;;;;;;;;;;5033563;28;20395;-48
2022/07/20 04:46:42;;;;;;;4.07;3.60;;;;;;;;;;5033353;28;20398;-49
2022/07/20 04:49:08;;;;;;;4.40;3.20;;;;;;;;;;5033052;28;20426;-50
2022/07/20 04:51:35;;;;;;;3.13;2.83;;;;;;;;;;5033402;28;20524;-49
2022/07/20 04:54:01;;;;;;;4.60;3.47;;;;;;;;;;5033336;28;20445;-49
2022/07/20 04:56:27;;;;;;;3.93;3.13;;;;;;;;;;5033138;28;20402;-48
2022/07/20 04:58:54;;;;;;;9.20;3.53;;;;;;;;;;5032859;28;20429;-49
2022/07/20 05:01:21;;;;;;;4.27;3.97;;;;;;;;;;5033215;28;20409;-50
2022/07/20 05:03:47;;;;;;;3.70;3.40;;;;;;;;;;5033271;28;20414;-48
2022/07/20 05:06:13;;;;;;;6.60;3.63;;;;;;;;;;5033070;28;20539;-48
2022/07/20 05:08:39;;;;;;;4.63;3.53;;;;;;;;;;5032596;28;20859;-49
2022/07/20 05:11:05;;;;;;;3.93;3.53;;;;;;;;;;5032855;28;20468;-48
2022/07/20 05:13:31;;;;;;;3.87;3.57;;;;;;;;;;5032982;28;20405;-49
2022/07/20 05:15:57;;;;;;;4.53;3.30;;;;;;;;;;5032988;28;20764;-49
2022/07/20 05:18:23;;;;;;;3.90;3.50;;;;;;;;;;5032512;28;20426;-49
2022/07/20 05:20:48;;;;;;;6.60;3.53;;;;;;;;;;5032816;28;20409;-49
2022/07/20 05:23:14;;;;;;;4.17;3.43;;;;;;;;;;5032793;28;20406;-49
2022/07/20 05:25:40;;;;;;;4.93;3.90;;;;;;;;;;5032625;28;20980;-48
2022/07/20 05:28:07;;;;;;;5.23;3.77;;;;;;;;;;5032784;28;20480;-50
2022/07/20 05:30:33;;;;;;;3.23;2.93;;;;;;;;;;5032315;28;20460;-49
2022/07/20 05:32:59;;;;;;;6.30;3.30;;;;;;;;;;5032752;28;20403;-49
2022/07/20 05:35:26;;;;;;;3.53;3.23;;;;;;;;;;5032517;28;20403;-49
2022/07/20 05:37:52;;;;;;;8.50;3.03;;;;;;;;;;5032326;28;20437;-50
2022/07/20 05:40:18;;;;;;;3.67;3.37;;;;;;;;;;5032192;28;20778;-49
2022/07/20 05:42:44;;;;;;;4.37;3.60;;;;;;;;;;5032444;28;20394;-48
2022/07/20 05:45:10;;;;;;;7.43;4.07;;;;;;;;;;5032432;28;20433;-49
2022/07/20 05:47:36;;;;;;;3.87;3.37;;;;;;;;;;5032186;28;20813;-50
2022/07/20 05:50:03;;;;;;;3.90;3.60;;;;;;;;;;5031964;28;20941;-49
2022/07/20 05:52:29;;;;;;;9.07;3.90;;;;;;;;;;5032183;28;20403;-49
2022/07/20 05:54:55;;;;;;;3.87;3.57;;;;;;;;;;5032126;28;20487;-49
2022/07/20 05:57:21;;;;;;;3.30;3.10;;;;;;;;;;5031693;28;20409;-49
2022/07/20 05:59:47;;;;;;;3.47;3.17;;;;;;;;;;5031584;28;20402;-49
2022/07/20 06:02:13;;;;;;;4.50;3.57;;;;;;;;;;5032067;28;20418;-49
2022/07/20 06:04:39;;;;;;;3.70;3.40;;;;;;;;;;5032017;28;20417;-49
2022/07/20 06:07:05;;;;;;;5.13;3.63;;;;;;;;;;5031993;28;20399;-49
2022/07/20 06:09:31;;;;;;;4.13;3.60;;;;;;;;;;5031525;28;20493;-49
2022/07/20 06:11:58;;;;;;;5.00;3.30;;;;;;;;;;5032020;28;20414;-49
2022/07/20 06:14:24;;;;;;;4.80;3.33;;;;;;;;;;5032061;28;20482;-48
2022/07/20 06:16:50;;;;;;;5.80;3.47;;;;;;;;;;5031935;28;20881;-49
2022/07/20 06:19:16;;;;;;;3.67;3.30;;;;;;;;;;5032094;28;20559;-49
2022/07/20 06:21:42;;;;;;;3.53;3.23;;;;;;;;;;5031777;28;20445;-50
2022/07/20 06:24:08;;;;;;;4.30;3.67;;;;;;;;;;5031826;28;20406;-50
2022/07/20 06:26:34;;;;;;;5.07;4.30;;;;;;;;;;5031845;28;20414;-49
2022/07/20 06:29:00;;;;;;;4.57;4.17;;;;;;;;;;5031559;28;20430;-48
2022/07/20 06:31:26;;;;;;;6.43;4.57;;;;;;;;;;5031760;28;20453;-49
2022/07/20 06:33:52;;;;;;;5.40;3.97;;;;;;;;;;5031910;28;20402;-49
2022/07/20 06:36:18;;;;;;;7.67;5.03;;;;;;;;;;5031660;28;20439;-48
2022/07/20 06:38:45;;;;;;;6.70;5.13;;;;;;;;;;5031374;28;20789;-49
2022/07/20 06:41:11;;;;;;;8.20;5.03;;;;;;;;;;5031695;28;20399;-49
2022/07/20 06:43:37;;;;;;;4.97;4.47;;;;;;;;;;5031727;28;20425;-49
2022/07/20 06:46:03;;;;;;;5.20;4.77;;;;;;;;;;5032046;28;20452;-49
2022/07/20 06:48:29;;;;;;;5.23;4.50;;;;;;;;;;5031244;28;20446;-49
2022/07/20 06:50:55;;;;;;;6.13;5.50;;;;;;;;;;5031487;28;20445;-49
2022/07/20 06:53:22;;;;;;;6.17;5.57;;;;;;;;;;5031651;28;20886;-50
2022/07/20 06:55:48;;;;;;;10.10;7.70;;;;;;;;;;5031527;28;20401;-50
2022/07/20 06:58:14;;;;;;;8.00;6.50;;;;;;;;;;5031518;28;20414;-50
2022/07/20 07:00:40;;;;;;;7.13;6.53;;;;;;;;;;5030772;28;20398;-49
2022/07/20 07:03:06;;;;;;;12.50;9.13;;;;;;;;;;5031099;28;20759;-49
2022/07/20 07:05:32;;;;;;;13.20;10.53;;;;;;;;;;5030970;28;20410;-49
2022/07/20 07:07:58;;;;;;;15.33;10.23;;;;;;;;;;5030789;28;20433;-49
2022/07/20 07:10:25;;;;;;;12.07;10.80;;;;;;;;;;5033660;28;20460;-48
2022/07/20 07:12:52;;;;;;;15.30;11.30;;;;;;;;;;5034618;28;20411;-49
2022/07/20 07:15:18;;;;;;;13.00;11.70;;;;;;;;;;5034783;28;20456;-50
2022/07/20 07:17:44;;;;;;;13.43;11.37;;;;;;;;;;5035101;28;20414;-50
2022/07/20 07:20:10;;;;;;;14.00;11.73;;;;;;;;;;5034692;28;20422;-49
2022/07/20 07:22:37;;;;;;;17.47;11.90;;;;;;;;;;5035020;28;20405;-50
2022/07/20 07:25:03;;;;;;;12.97;11.60;;;;;;;;;;5035201;28;20429;-49
2022/07/20 07:27:29;;;;;;;14.07;11.30;;;;;;;;;;5034868;28;20398;-50
2022/07/20 07:29:55;;;;;;;13.10;11.83;;;;;;;;;;5034590;28;20453;-49
2022/07/20 07:32:21;;;;;;;17.27;11.10;;;;;;;;;;5035308;28;20402;-50
2022/07/20 07:34:47;;;;;;;16.30;12.60;;;;;;;;;;5034710;28;20441;-49
2022/07/20 07:37:13;;;;;;;18.70;12.70;;;;;;;;;;5034849;28;20399;-49
2022/07/20 07:39:39;;;;;;;14.70;13.00;;;;;;;;;;5033469;28;20489;-49
2022/07/20 07:42:06;;;;;;;14.37;12.90;;;;;;;;;;5033207;28;20403;-49
2022/07/20 07:44:31;;;;;;;15.03;12.20;;;;;;;;;;5033562;28;20409;-48
2022/07/20 07:46:57;;;;;;;17.47;12.63;;;;;;;;;;5034094;28;20394;-49
2022/07/20 07:49:23;;;;;;;17.43;12.33;;;;;;;;;;5034083;28;20464;-49
2022/07/20 07:51:49;;;;;;;17.63;12.67;;;;;;;;;;5034422;28;20422;-49
2022/07/20 07:54:15;;;;;;;23.40;13.00;;;;;;;;;;5034306;28;20781;-49
2022/07/20 07:56:41;;;;;;;14.03;12.53;;;;;;;;;;5034407;28;20415;-50
2022/07/20 07:59:07;;;;;;;16.00;13.03;;;;;;;;;;5034085;28;20430;-50
2022/07/20 08:01:34;;;;;;;17.03;12.43;;;;;;;;;;5033101;28;20461;-49
2022/07/20 08:04:00;;;;;;;21.13;14.30;;;;;;;;;;5034275;28;20394;-49
2022/07/20 08:06:27;;;;;;;14.70;13.00;;;;;;;;;;5034248;28;20414;-49
2022/07/20 08:08:53;;;;;;;16.60;13.90;;;;;;;;;;5033615;28;20428;-50
2022/07/20 08:11:19;;;;;;;19.73;13.63;;;;;;;;;;5034024;28;20928;-50
2022/07/20 08:13:45;;;;;;;17.90;13.43;;;;;;;;;;5033972;28;20847;-49
2022/07/20 08:16:11;;;;;;;17.43;14.03;;;;;;;;;;5034059;28;20425;-49
2022/07/20 08:18:37;;;;;;;15.83;14.20;;;;;;;;;;5033777;28;20509;-50
2022/07/20 08:21:03;;;;;;;18.47;14.60;;;;;;;;;;5033147;28;20485;-50
2022/07/20 08:23:29;;;;;;;15.57;12.97;;;;;;;;;;5033691;28;20517;-50
2022/07/20 08:25:55;;;;;;;13.93;12.70;;;;;;;;;;5033833;28;20398;-49
2022/07/20 08:28:21;;;;;;;18.63;13.77;;;;;;;;;;5033607;28;20505;-49
2022/07/20 08:30:49;;;;;;;16.17;13.43;;;;;;;;;;5033637;28;20802;-51
2022/07/20 08:33:15;;;;;;;16.10;13.70;;;;;;;;;;5033742;28;20456;-50
2022/07/20 08:35:41;;;;;;;19.97;14.83;;;;;;;;;;5033758;28;20422;-49
2022/07/20 08:38:07;;;;;;;15.47;13.47;;;;;;;;;;5033305;28;20449;-50
2022/07/20 08:40:33;;;;;;;16.60;14.07;;;;;;;;;;5033399;28;20398;-50
2022/07/20 08:42:59;;;;;;;19.03;16.33;;;;;;;;;;5033651;28;20500;-50
2022/07/20 08:45:26;;;;;;;16.30;14.27;;;;;;;;;;5033443;28;20445;-50
2022/07/20 08:47:52;;;;;;;22.63;15.67;;;;;;;;;;5032977;28;20433;-50
2022/07/20 08:50:22;;;;;;;16.37;14.33;;;;;;;;;;5032934;28;20523;-49
2022/07/20 08:52:48;;;;;;;17.17;15.37;;;;;;;;;;5033255;28;20401;-50
2022/07/20 08:55:15;;;;;;;15.37;13.70;;;;;;;;;;5033309;28;20896;-50
2022/07/20 08:57:42;;;;;;;15.80;14.20;;;;;;;;;;5033208;28;20460;-50
2022/07/20 09:00:09;;;;;;;15.40;13.90;;;;;;;;;;5032945;28;20460;-49
2022/07/20 09:02:55;;;;;;;14.37;12.87;;;;;;;;;;5031999;28;20414;-48
2022/07/20 09:05:25;;;;;;;15.10;13.70;;;;;;;;;;5033012;28;20925;-48
2022/07/20 09:07:53;;;;;;;16.00;14.50;;;;;;;;;;5032895;28;20436;-48
2022/07/20 09:10:22;;;;;;;15.03;13.60;;;;;;;;;;5032586;28;20450;-49
2022/07/20 09:12:50;;;;;;;15.13;13.70;;;;;;;;;;5032848;28;20897;-49
2022/07/20 09:15:35;;;;;;;16.73;15.17;;;;;;;;;;5032554;28;20403;-48
2022/07/20 09:18:04;;;;;;;16.30;14.70;;;;;;;;;;5032566;28;20430;-48
2022/07/20 09:20:31;;;;;;;16.50;14.17;;;;;;;;;;5032428;28;20419;-48
2022/07/20 09:23:08;;;;;;;15.93;14.27;;;;;;;;;;5032743;28;20406;-49
2022/07/20 09:25:34;;;;;;;14.23;12.80;;;;;;;;;;5032617;28;20404;-48
2022/07/20 09:28:00;;;;;;;15.07;13.37;;;;;;;;;;5032508;28;20418;-48
2022/07/20 09:30:27;;;;;;;16.13;14.43;;;;;;;;;;5032278;28;20508;-48
2022/07/20 09:32:57;;;;;;;16.57;14.03;;;;;;;;;;5032519;28;20890;-48
2022/07/20 09:35:24;;;;;;;15.23;13.63;;;;;;;;;;5031963;28;20909;-49
2022/07/20 09:37:50;;;;;;;17.87;13.10;;;;;;;;;;5032286;28;20434;-48
2022/07/20 09:40:16;;;;;;;15.57;12.70;;;;;;;;;;5032054;28;20441;-48
2022/07/20 09:42:43;;;;;;;12.93;11.70;;;;;;;;;;5032378;28;20172;-48
2022/07/20 09:45:24;;;;;;;13.20;11.80;;;;;;;;;;5035543;28;20898;-47
2022/07/20 09:48:22;;;;;;;14.73;12.47;;;;;;;;;;5024275;28;20425;-47
2022/07/20 09:50:48;;;;;;;15.13;13.60;;;;;;;;;;5024589;28;20466;-48
2022/07/20 09:53:14;;;;;;;12.50;11.33;;;;;;;;;;5033015;28;20436;-47
2022/07/20 09:55:42;;;;;;;12.83;11.53;;;;;;;;;;5032851;28;20499;-48
2022/07/20 09:58:08;;;;;;;13.30;10.53;;;;;;;;;;5032433;28;20430;-47
2022/07/20 10:00:36;;;;;;;12.77;11.50;;;;;;;;;;5032370;28;20470;-48
2022/07/20 10:03:03;;;;;;;11.90;10.80;;;;;;;;;;5032215;28;20403;-48
2022/07/20 10:05:31;;;;;;;12.07;10.97;;;;;;;;;;5032364;28;20406;-47
2022/07/20 10:08:00;;;;;;;11.47;9.90;;;;;;;;;;5032652;28;20814;-47
2022/07/20 10:10:26;;;;;;;15.13;11.70;;;;;;;;;;5032040;28;20816;-48
2022/07/20 10:12:54;;;;;;;12.10;10.90;;;;;;;;;;5032368;28;20409;-48
2022/07/20 10:15:24;;;;;;;12.33;10.97;;;;;;;;;;5032523;28;20171;-48
2022/07/20 10:17:50;;;;;;;13.23;11.90;;;;;;;;;;5032225;28;20433;-47
2022/07/20 10:20:30;;;;;;;12.30;10.73;;;;;;;;;;5030958;28;20424;-47
2022/07/20 10:23:14;;;;;;;14.13;12.73;;;;;;;;;;5032568;28;20414;-47
2022/07/20 10:25:40;;;;;;;13.80;11.60;;;;;;;;;;5032080;28;20455;-48
2022/07/20 10:28:36;;;;;;;12.07;11.00;;;;;;;;;;5031742;28;20437;-48
2022/07/20 10:31:10;;;;;;;13.77;11.93;;;;;;;;;;5023067;28;20469;-49
2022/07/20 10:33:37;;;;;;;14.33;11.40;;;;;;;;;;5031965;28;20964;-47
2022/07/20 10:39:28;;;;;;;13.20;11.73;;;;;;;;;;5031870;28;20775;-48
2022/07/20 10:42:17;;;;;;;11.47;10.10;;;;;;;;;;5031761;28;20390;-47
2022/07/20 10:44:43;;;;;;;14.70;10.07;;;;;;;;;;5034042;28;20402;-48
2022/07/20 10:47:29;;;;;;;11.47;10.40;;;;;;;;;;5035894;28;20798;-50
2022/07/20 10:50:04;;;;;;;11.80;10.70;;;;;;;;;;5035363;28;20202;-50
2022/07/20 10:52:32;;;;;;;11.60;10.40;;;;;;;;;;5035727;28;20398;-50
2022/07/20 10:54:58;;;;;;;12.63;11.47;;;;;;;;;;5035725;28;20398;-50
2022/07/20 10:57:25;;;;;;;12.33;11.27;;;;;;;;;;5035634;28;20437;-49
2022/07/20 11:00:10;;;;;;;11.10;10.10;;;;;;;;;;5035444;28;20405;-50
2022/07/20 11:02:36;;;;;;;11.80;10.60;;;;;;;;;;5035454;28;20399;-50
2022/07/20 11:05:03;;;;;;;12.13;10.87;;;;;;;;;;5035448;28;20425;-50
2022/07/20 11:07:34;;;;;;;11.73;10.70;;;;;;;;;;5035404;28;20430;-48
2022/07/20 11:10:01;;;;;;;10.37;9.37;;;;;;;;;;5034944;28;20548;-50
2022/07/20 11:12:28;;;;;;;11.20;10.17;;;;;;;;;;5035238;28;20409;-50
2022/07/20 11:14:54;;;;;;;12.00;10.13;;;;;;;;;;5035121;28;20426;-49
2022/07/20 11:17:21;;;;;;;9.70;8.90;;;;;;;;;;5033788;28;20409;-50
2022/07/20 11:19:48;;;;;;;12.20;10.53;;;;;;;;;;5034745;28;20406;-49
2022/07/20 11:22:15;;;;;;;9.60;8.63;;;;;;;;;;5033919;28;20402;-48
2022/07/20 11:24:41;;;;;;;13.33;10.43;;;;;;;;;;5035007;28;20399;-49
2022/07/20 11:27:14;;;;;;;10.13;8.73;;;;;;;;;;5035098;28;20425;-48
2022/07/20 11:29:47;;;;;;;10.90;10.00;;;;;;;;;;5034686;28;20588;-49
2022/07/20 11:32:13;;;;;;;11.47;10.27;;;;;;;;;;5035017;28;20409;-47
2022/07/20 11:34:49;;;;;;;11.10;10.10;;;;;;;;;;5034832;28;20401;-49
2022/07/20 11:37:17;;;;;;;11.83;10.23;;;;;;;;;;5035018;28;20398;-47
2022/07/20 11:39:43;;;;;;;13.77;9.43;;;;;;;;;;5034451;28;20453;-50
2022/07/20 11:42:13;;;;;;;10.57;9.70;;;;;;;;;;5034841;28;20439;-50
2022/07/20 11:44:39;;;;;;;10.80;9.70;;;;;;;;;;5033619;28;20417;-49
2022/07/20 11:47:05;;;;;;;11.00;9.93;;;;;;;;;;5034538;28;20406;-49
2022/07/20 11:49:31;;;;;;;10.60;9.47;;;;;;;;;;5034327;28;20929;-49
2022/07/20 11:52:03;;;;;;;8.50;7.70;;;;;;;;;;5034615;28;20508;-48
2022/07/20 11:54:33;;;;;;;10.53;9.57;;;;;;;;;;5034999;28;20171;-51
2022/07/20 11:56:59;;;;;;;9.67;8.67;;;;;;;;;;5033390;28;20889;-50
2022/07/20 11:59:25;;;;;;;9.33;8.37;;;;;;;;;;5034316;28;20569;-49
2022/07/20 12:01:52;;;;;;;8.53;7.73;;;;;;;;;;5034428;28;20251;-50
2022/07/20 12:04:19;;;;;;;8.97;8.07;;;;;;;;;;5034633;28;20479;-50
2022/07/20 12:06:45;;;;;;;9.07;8.27;;;;;;;;;;5034500;28;20973;-50
2022/07/20 12:09:18;;;;;;;8.90;8.10;;;;;;;;;;5039799;28;20442;-51
2022/07/20 12:11:54;;;;;;;9.07;8.10;;;;;;;;;;5034289;28;20462;-50
2022/07/20 12:14:30;;;;;;;15.67;8.37;;;;;;;;;;5033565;28;20456;-49
2022/07/20 12:16:56;;;;;;;9.30;8.20;;;;;;;;;;5033210;28;20425;-50
2022/07/20 12:19:22;;;;;;;15.80;9.50;;;;;;;;;;5033933;28;20454;-50
2022/07/20 12:21:49;;;;;;;10.70;9.70;;;;;;;;;;5034231;28;20441;-50
2022/07/20 12:24:15;;;;;;;10.53;9.50;;;;;;;;;;5034242;28;20702;-50
2022/07/20 12:26:43;;;;;;;11.60;8.93;;;;;;;;;;5034584;28;20403;-50
2022/07/20 12:29:26;;;;;;;10.33;9.37;;;;;;;;;;5033499;28;20422;-50
2022/07/20 12:31:58;;;;;;;15.53;9.60;;;;;;;;;;5033652;28;20473;-50
2022/07/20 12:34:24;;;;;;;9.73;8.43;;;;;;;;;;5033827;28;20399;-51
2022/07/20 12:36:50;;;;;;;10.30;9.37;;;;;;;;;;5034479;28;20402;-50
2022/07/20 12:39:35;;;;;;;10.27;9.27;;;;;;;;;;5033120;28;20442;-50
2022/07/20 12:42:08;;;;;;;11.30;10.07;;;;;;;;;;5033775;28;20398;-49
2022/07/20 12:44:34;;;;;;;11.20;8.80;;;;;;;;;;5033836;28;20406;-49
2022/07/20 12:47:00;;;;;;;10.07;9.00;;;;;;;;;;5033627;28;20456;-49
2022/07/20 12:49:28;;;;;;;9.20;8.30;;;;;;;;;;5033704;28;20418;-50
2022/07/20 12:51:54;;;;;;;10.83;8.57;;;;;;;;;;5033277;28;20449;-49
2022/07/20 12:54:21;;;;;;;10.47;8.73;;;;;;;;;;5033450;28;20489;-51
2022/07/20 12:56:48;;;;;;;8.73;8.13;;;;;;;;;;5033747;28;20406;-51
2022/07/20 12:59:14;;;;;;;15.17;8.27;;;;;;;;;;5033356;28;20429;-49
2022/07/20 13:01:41;;;;;;;9.27;8.47;;;;;;;;;;5033419;28;20418;-51
2022/07/20 13:04:07;;;;;;;9.10;8.30;;;;;;;;;;5033440;28;20456;-49
2022/07/20 13:06:33;;;;;;;10.33;7.50;;;;;;;;;;5033299;28;20948;-49
2022/07/20 13:09:00;;;;;;;10.23;9.30;;;;;;;;;;5032841;28;20509;-48
2022/07/20 13:11:26;;;;;;;7.80;7.10;;;;;;;;;;5033067;28;20464;-49
2022/07/20 13:13:52;;;;;;;8.53;7.70;;;;;;;;;;5033246;28;20409;-50
2022/07/20 13:16:18;;;;;;;8.17;7.07;;;;;;;;;;5033140;28;20485;-49
2022/07/20 13:18:44;;;;;;;8.20;7.43;;;;;;;;;;5032581;28;20529;-50
2022/07/20 13:21:11;;;;;;;10.10;8.97;;;;;;;;;;5032943;28;20840;-50
2022/07/20 13:23:37;;;;;;;8.67;7.97;;;;;;;;;;5033126;28;20398;-50
2022/07/20 13:26:03;;;;;;;9.07;8.27;;;;;;;;;;5032963;28;20413;-50
2022/07/20 13:28:30;;;;;;;9.00;8.20;;;;;;;;;;5033499;28;20841;-49
2022/07/20 13:30:56;;;;;;;14.67;8.70;;;;;;;;;;5033074;28;20454;-49
2022/07/20 13:33:24;;;;;;;9.23;8.53;;;;;;;;;;5032853;28;20801;-49
2022/07/20 13:35:50;;;;;;;9.53;8.53;;;;;;;;;;5032946;28;20394;-50
2022/07/20 13:38:18;;;;;;;10.53;7.97;;;;;;;;;;5031186;28;20457;-49
2022/07/20 13:40:44;;;;;;;8.20;7.50;;;;;;;;;;5032429;28;20398;-49
2022/07/20 13:43:10;;;;;;;9.50;8.10;;;;;;;;;;5032434;28;20406;-50
2022/07/20 13:45:36;;;;;;;10.20;8.20;;;;;;;;;;5032345;28;20425;-48
2022/07/20 13:48:03;;;;;;;9.13;8.30;;;;;;;;;;5032052;28;20187;-48
2022/07/20 13:50:29;;;;;;;9.73;7.80;;;;;;;;;;5032223;28;20466;-49
2022/07/20 13:52:55;;;;;;;7.83;7.23;;;;;;;;;;5032237;28;20769;-49
2022/07/20 13:55:21;;;;;;;8.07;7.30;;;;;;;;;;5032808;28;20402;-49
2022/07/20 13:57:48;;;;;;;10.87;7.87;;;;;;;;;;5032334;28;20631;-50
2022/07/20 14:00:14;;;;;;;8.67;7.87;;;;;;;;;;5031779;28;20449;-50
2022/07/20 14:02:41;;;;;;;8.60;7.87;;;;;;;;;;5032117;28;20421;-50
2022/07/20 14:05:07;;;;;;;9.63;8.50;;;;;;;;;;5032193;28;20410;-48
2022/07/20 14:07:34;;;;;;;8.43;7.73;;;;;;;;;;5032312;28;20409;-50
2022/07/20 14:10:00;;;;;;;10.30;8.50;;;;;;;;;;5032168;28;20520;-49
2022/07/20 14:12:26;;;;;;;8.00;6.90;;;;;;;;;;5032362;28;20405;-49
2022/07/20 14:14:52;;;;;;;8.30;7.50;;;;;;;;;;5031977;28;20952;-49
2022/07/20 14:17:18;;;;;;;9.50;8.40;;;;;;;;;;5031723;28;20910;-48
2022/07/20 14:19:44;;;;;;;9.07;8.10;;;;;;;;;;5031345;28;20403;-49
2022/07/20 14:22:10;;;;;;;8.67;7.87;;;;;;;;;;5031806;28;20399;-48
2022/07/20 14:24:36;;;;;;;9.37;8.43;;;;;;;;;;5031868;28;20411;-49
2022/07/20 14:27:02;;;;;;;12.20;7.90;;;;;;;;;;5031867;28;20171;-48
2022/07/20 14:29:28;;;;;;;11.83;8.40;;;;;;;;;;5031379;28;20480;-49
2022/07/20 14:31:54;;;;;;;8.00;7.20;;;;;;;;;;5031538;28;20461;-48
2022/07/20 14:34:21;;;;;;;8.67;7.37;;;;;;;;;;5031798;28;20178;-50
2022/07/20 14:36:48;;;;;;;11.03;8.37;;;;;;;;;;5031746;28;20478;-50
2022/07/20 14:39:14;;;;;;;8.30;7.60;;;;;;;;;;5031256;28;20449;-48